Time;durP1;ratioP1;P1;durP2;ratioP2;P2;SDS_P1;SDS_P2;PMS_P1;PMS_P2;Temp;Humidity;BMP_temperature;BMP_pressure;BME280_temperature;BME280_humidity;BME280_pressure;Samples;Min_cycle;Max_cycle;Signal;HPM_P1;HPM_P2
2022/05/11 07:02:03;;;;;;;;;15.00;15.00;;;;;19.57;54.03;101074.34;5072194;27;45565;-74
2022/05/11 07:04:32;;;;;;;;;13.75;13.50;;;;;19.75;53.87;101080.81;5066118;27;45604;-75
2022/05/11 07:06:59;;;;;;;;;16.25;13.00;;;;;20.06;53.71;101085.38;5068006;28;45629;-75
2022/05/11 07:09:26;;;;;;;;;14.50;14.00;;;;;20.40;53.25;101081.50;5054790;28;45387;-76
2022/05/11 07:14:39;;;;;;;;;12.25;12.25;;;;;21.17;52.48;101075.41;5060298;28;45697;-75
2022/05/11 07:17:06;;;;;;;;;12.75;12.75;;;;;21.52;51.23;101079.31;5055003;27;45634;-75
2022/05/11 07:19:33;;;;;;;;;13.00;12.75;;;;;21.87;51.22;101076.94;5057179;28;45508;-75
2022/05/11 07:21:58;;;;;;;;;12.25;11.75;;;;;22.20;50.58;101077.31;5052579;28;46298;-74
2022/05/11 07:24:24;;;;;;;;;11.00;11.00;;;;;22.55;49.77;101073.97;5057584;28;45473;-74
2022/05/11 07:26:50;;;;;;;;;12.50;12.00;;;;;22.85;49.40;101074.59;5060873;28;51054;-77
2022/05/11 07:29:15;;;;;;;;;15.00;14.00;;;;;23.12;48.75;101076.34;5073164;27;45417;-74
2022/05/11 07:31:41;;;;;;;;;12.33;12.00;;;;;23.39;48.41;101071.84;5060865;28;46205;-74
2022/05/11 07:34:07;;;;;;;;;11.67;11.67;;;;;23.62;47.63;101073.97;5048128;28;45607;-74
2022/05/11 07:36:32;;;;;;;;;11.33;10.00;;;;;23.82;47.19;101073.72;5062108;28;45802;-76
2022/05/11 07:38:58;;;;;;;;;13.33;12.00;;;;;24.02;46.97;101081.59;5058007;28;45694;-77
2022/05/11 07:41:24;;;;;;;;;10.00;10.00;;;;;24.17;46.22;101080.00;5053637;28;46152;-77
2022/05/11 07:43:49;;;;;;;;;11.33;10.00;;;;;24.32;45.96;101082.91;5063468;28;45521;-75
2022/05/11 07:46:15;;;;;;;;;11.00;8.67;;;;;24.46;45.97;101084.16;5061736;28;45438;-75
2022/05/11 07:48:40;;;;;;;;;11.00;10.33;;;;;24.59;45.86;101091.78;5064568;28;47005;-74
2022/05/11 07:51:06;;;;;;;;;13.00;12.00;;;;;24.72;45.72;101087.72;5065129;28;46238;-73
2022/05/11 07:53:32;;;;;;;;;12.67;12.33;;;;;24.84;45.72;101080.97;5063737;28;45642;-73
2022/05/11 08:01:30;;;;;;;;;12.00;12.00;;;;;25.21;45.46;101080.59;5024516;28;45813;-72
2022/05/11 08:03:55;;;;;;;;;10.67;10.67;;;;;25.30;45.58;101086.91;5023639;28;56690;-74
2022/05/11 08:06:20;;;;;;;;;12.00;11.67;;;;;25.40;44.88;101082.13;5027268;28;45429;-72
2022/05/11 08:08:46;;;;;;;;;12.00;10.67;;;;;25.47;44.95;101085.81;5018913;28;45495;-72
2022/05/11 08:11:12;;;;;;;;;13.67;12.67;;;;;25.54;45.02;101075.13;5021595;28;46289;-72
2022/05/11 08:13:37;;;;;;;;;13.33;12.00;;;;;25.63;44.78;101079.53;4993566;28;45612;-72
2022/05/11 08:16:03;;;;;;;;;17.67;14.00;;;;;25.69;44.62;101075.28;5010070;28;45561;-75
2022/05/11 08:18:29;;;;;;;;;22.50;17.00;;;;;25.80;43.99;101076.78;5010787;28;45477;-75
2022/05/11 08:20:54;;;;;;;;;14.33;13.67;;;;;25.86;43.38;101075.19;5011274;28;45651;-74
2022/05/11 08:23:21;;;;;;;;;13.33;13.00;;;;;25.92;42.60;101071.81;5009529;28;45849;-75
2022/05/11 08:25:49;;;;;;;;;16.00;14.00;;;;;25.97;42.93;101082.13;5011388;28;45413;-74
2022/05/11 08:28:18;;;;;;;;;12.00;11.67;;;;;26.00;42.51;101082.63;5007848;28;45569;-74
2022/05/11 08:33:29;;;;;;;;;14.33;14.33;;;;;26.01;42.53;101084.34;5010451;28;45420;-74
2022/05/11 08:36:06;;;;;;;;;12.67;12.67;;;;;26.02;42.60;101090.59;5030226;28;45520;-73
2022/05/11 08:38:39;;;;;;;;;13.33;11.00;;;;;26.05;42.66;101084.81;5041617;28;45781;-73
2022/05/11 08:41:11;;;;;;;;;15.00;14.00;;;;;26.10;43.07;101087.84;5040936;28;48324;-73
2022/05/11 08:43:37;;;;;;;;;13.00;13.00;;;;;26.12;43.09;101090.41;5045608;28;45788;-72
2022/05/11 08:46:20;;;;;;;;;15.00;11.00;;;;;26.18;43.04;101089.69;5049981;28;45591;-75
2022/05/11 08:49:35;;;;;;;;;13.00;13.00;;;;;26.24;42.96;101099.00;5032983;28;45682;-74
2022/05/11 08:52:04;;;;;;;;;12.33;11.33;;;;;26.27;42.96;101102.25;5034268;28;45419;-74
2022/05/11 08:54:44;;;;;;;;;16.00;13.67;;;;;26.34;42.75;101102.38;5042825;28;45508;-74
2022/05/11 08:57:23;;;;;;;;;14.67;11.67;;;;;26.41;43.12;101092.47;5055062;28;45486;-74
2022/05/11 08:59:57;;;;;;;;;13.00;13.00;;;;;26.47;43.00;101090.91;5043621;28;55198;-74
2022/05/11 09:02:26;;;;;;;;;14.33;11.00;;;;;26.51;42.68;101092.25;5050905;28;46584;-75
2022/05/11 09:05:00;;;;;;;;;13.33;13.00;;;;;26.54;42.71;101089.16;5046987;28;55160;-77
2022/05/11 09:07:27;;;;;;;;;12.67;12.67;;;;;26.61;43.05;101094.75;5041310;28;45376;-74
2022/05/11 09:09:54;;;;;;;;;14.33;10.67;;;;;26.65;42.65;101085.16;5045186;28;45435;-74
2022/05/11 09:12:20;;;;;;;;;13.00;11.33;;;;;26.69;42.77;101091.94;5041661;28;46254;-74
2022/05/11 09:14:50;;;;;;;;;12.67;11.00;;;;;26.74;43.37;101091.41;5044730;28;45870;-74
2022/05/11 09:17:37;;;;;;;;;12.67;12.67;;;;;26.79;42.70;101093.56;5041020;28;45443;-74
2022/05/11 09:20:11;;;;;;;;;11.00;11.00;;;;;26.82;43.07;101095.94;5035785;28;45486;-73
2022/05/11 09:22:40;;;;;;;;;9.67;9.67;;;;;26.86;42.56;101086.38;5048384;28;45994;-74
2022/05/11 09:25:24;;;;;;;;;13.00;8.67;;;;;26.91;43.16;101091.25;5035714;28;45473;-74
2022/05/11 09:27:51;;;;;;;;;11.67;10.67;;;;;26.94;43.26;101096.38;5033855;28;45324;-73
2022/05/11 09:30:23;;;;;;;;;11.33;11.00;;;;;26.97;43.13;101074.22;5050921;28;45507;-73
2022/05/11 09:32:53;;;;;;;;;10.67;10.67;;;;;27.01;43.15;101091.88;5040353;28;45749;-74
2022/05/11 09:35:36;;;;;;;;;11.00;11.00;;;;;27.05;43.12;101084.22;5043345;28;45879;-75
2022/05/11 09:38:01;;;;;;;;;9.67;9.00;;;;;27.09;42.42;101091.81;5041444;28;45471;-73
2022/05/11 09:40:29;;;;;;;;;13.33;10.00;;;;;27.08;42.32;101084.69;5042841;28;45457;-74
2022/05/11 09:43:01;;;;;;;;;11.00;9.33;;;;;27.13;42.93;101088.72;5048431;28;45611;-74
2022/05/11 09:45:48;;;;;;;;;9.33;9.33;;;;;27.15;43.05;101083.94;5054624;28;45383;-72
2022/05/11 09:48:24;;;;;;;;;12.67;10.67;;;;;27.14;43.13;101077.63;5039390;28;45469;-73
2022/05/11 09:50:53;;;;;;;;;11.00;9.33;;;;;27.19;43.05;101077.09;5045509;28;45563;-75
2022/05/11 09:53:22;;;;;;;;;6.67;5.33;;;;;27.23;40.04;101078.41;5045111;28;47202;-74
2022/05/11 09:55:48;;;;;;;;;5.67;4.67;;;;;27.23;40.35;101078.41;5042070;28;45513;-74
2022/05/11 09:58:26;;;;;;;;;7.67;7.67;;;;;27.19;40.62;101063.47;5034784;28;47053;-73
2022/05/11 10:00:52;;;;;;;;;12.33;9.67;;;;;27.23;41.44;101076.50;5053130;28;47963;-74
2022/05/11 10:03:28;;;;;;;;;10.33;9.00;;;;;27.26;41.00;101069.84;5042047;28;45881;-73
2022/05/11 10:05:54;;;;;;;;;9.33;8.33;;;;;27.28;41.62;101077.84;5041836;28;45371;-73
2022/05/11 10:08:28;;;;;;;;;10.00;7.00;;;;;27.29;41.24;101080.38;5043454;28;45544;-73
2022/05/11 10:10:59;;;;;;;;;9.00;7.00;;;;;27.32;41.61;101076.44;5049115;28;45496;-73
2022/05/11 10:13:59;;;;;;;;;9.67;7.00;;;;;27.31;41.36;101077.47;5037098;28;45589;-73
2022/05/11 10:22:29;;;;;;;;;7.67;6.00;;;;;27.34;41.42;101077.94;5048135;28;45399;-74
2022/05/11 10:25:06;;;;;;;;;7.00;7.00;;;;;27.37;41.09;101071.28;5034419;28;46033;-74
2022/05/11 10:27:41;;;;;;;;;8.33;8.33;;;;;27.36;41.02;101073.19;5035722;28;45433;-73
2022/05/11 10:30:11;;;;;;;;;9.00;7.33;;;;;27.41;41.29;101077.19;5040885;28;45494;-73
2022/05/11 10:32:46;;;;;;;;;6.33;5.33;;;;;27.43;41.11;101078.69;5038702;28;45430;-73
2022/05/11 10:35:31;;;;;;;;;9.67;8.33;;;;;27.47;41.66;101076.47;5040035;28;47101;-73
2022/05/11 10:38:12;;;;;;;;;6.33;6.33;;;;;27.51;41.51;101079.66;5034371;28;54177;-74
2022/05/11 10:41:06;;;;;;;;;10.00;10.00;;;;;27.52;41.90;101079.47;5032964;28;45796;-74
2022/05/11 10:43:56;;;;;;;;;10.00;7.00;;;;;27.54;40.83;101074.66;5033413;28;45821;-75
2022/05/11 10:46:33;;;;;;;;;8.33;6.00;;;;;27.55;40.38;101061.91;5034655;28;46293;-75
2022/05/11 10:49:04;;;;;;;;;7.33;6.00;;;;;27.54;41.18;101063.75;5041964;28;45593;-75
2022/05/11 10:51:37;;;;;;;;;7.33;7.33;;;;;27.53;40.74;101056.63;5043640;28;45635;-75
2022/05/11 10:54:14;;;;;;;;;6.00;6.00;;;;;27.53;41.19;101047.59;5040947;28;45957;-75
2022/05/11 10:57:11;;;;;;;;;6.33;6.33;;;;;27.55;41.59;101051.81;5040619;28;46499;-75
2022/05/11 11:00:00;;;;;;;;;7.67;5.67;;;;;27.56;41.58;101053.53;5035666;28;45417;-72
2022/05/11 11:02:47;;;;;;;;;6.00;6.00;;;;;27.59;41.52;101055.84;5032868;28;45621;-73
2022/05/11 11:05:33;;;;;;;;;8.33;7.67;;;;;27.61;40.89;101050.25;5036432;28;45793;-72
2022/05/11 11:08:09;;;;;;;;;7.33;7.00;;;;;27.62;41.47;101044.63;5037834;28;45689;-73
2022/05/11 11:11:05;;;;;;;;;8.33;6.67;;;;;27.63;41.48;101050.94;5037675;28;45675;-73
2022/05/11 11:13:54;;;;;;;;;9.00;7.33;;;;;27.64;40.93;101049.03;5042868;28;45512;-72
2022/05/11 11:16:25;;;;;;;;;8.00;7.00;;;;;27.63;40.76;101053.66;5034150;28;45488;-72
2022/05/11 11:18:51;;;;;;;;;7.33;6.00;;;;;27.60;40.74;101043.13;5034358;28;45878;-74
2022/05/11 11:21:19;;;;;;;;;7.67;7.67;;;;;27.60;40.79;101034.94;5033341;28;45464;-73
2022/05/11 11:23:49;;;;;;;;;8.00;6.33;;;;;27.60;41.28;101043.97;5034453;28;56916;-74
2022/05/11 11:26:29;;;;;;;;;7.33;7.33;;;;;27.59;40.84;101036.78;5038535;28;45673;-73
2022/05/11 11:28:54;;;;;;;;;9.00;7.33;;;;;27.60;40.61;101037.66;5042698;28;46575;-73
2022/05/11 11:31:24;;;;;;;;;8.00;8.00;;;;;27.59;40.95;101025.88;5042366;28;45849;-73
2022/05/11 11:33:54;;;;;;;;;9.33;7.33;;;;;27.58;40.84;101034.22;5040690;28;45428;-73
2022/05/11 11:36:28;;;;;;;;;8.67;7.67;;;;;27.57;41.17;101022.50;5043932;28;45521;-73
2022/05/11 11:38:59;;;;;;;;;8.33;7.67;;;;;27.55;40.75;101018.28;5047202;28;46551;-73
2022/05/11 11:41:32;;;;;;;;;6.33;6.33;;;;;27.56;40.79;101014.50;5042040;28;45552;-72
2022/05/11 11:44:30;;;;;;;;;7.00;7.00;;;;;27.55;40.99;101013.66;5035675;28;45490;-74
2022/05/11 11:46:57;;;;;;;;;8.67;8.67;;;;;27.55;41.23;101021.81;5038060;28;45506;-72
2022/05/11 11:49:26;;;;;;;;;6.67;6.33;;;;;27.56;41.18;101011.78;5033731;28;46431;-74
2022/05/11 11:51:51;;;;;;;;;7.33;6.33;;;;;27.57;40.86;101013.47;5035755;28;46147;-75
2022/05/11 11:54:37;;;;;;;;;8.33;7.00;;;;;27.56;40.72;101020.81;5038459;28;45572;-75
2022/05/11 11:57:21;;;;;;;;;6.00;4.33;;;;;27.56;41.20;101007.19;5038903;28;45554;-75
2022/05/11 11:59:58;;;;;;;;;6.67;4.33;;;;;27.54;40.77;101003.78;5039837;28;47247;-75
2022/05/11 12:02:33;;;;;;;;;5.00;5.00;;;;;27.54;41.29;101002.97;5043105;28;45485;-77
2022/05/11 12:05:05;;;;;;;;;5.67;5.67;;;;;27.54;41.35;101003.78;5048507;28;45868;-76
2022/05/11 12:16:12;;;;;;;;;7.33;6.33;;;;;27.68;41.14;101001.28;5044210;28;50685;-76
2022/05/11 12:18:41;;;;;;;;;5.00;5.00;;;;;27.74;41.35;101005.94;5046546;28;51567;-75
2022/05/11 12:21:11;;;;;;;;;8.00;6.67;;;;;27.78;41.91;101012.72;5046325;28;45529;-76
2022/05/11 12:23:46;;;;;;;;;6.33;4.67;;;;;27.82;41.90;100999.53;5042223;28;45549;-75
2022/05/11 12:26:24;;;;;;;;;4.00;4.00;;;;;27.86;41.82;100987.22;5046405;28;45483;-76
2022/05/11 12:28:50;;;;;;;;;5.00;5.00;;;;;27.90;41.69;100988.53;5044654;28;45767;-75
2022/05/11 12:31:31;;;;;;;;;9.67;7.67;;;;;27.96;41.49;100985.00;5047461;28;55510;-75
2022/05/11 12:33:57;;;;;;;;;6.00;6.00;;;;;27.99;41.85;100983.78;5050785;28;45570;-76
2022/05/11 12:36:37;;;;;;;;;5.00;5.00;;;;;28.04;41.27;100975.91;5051349;28;45327;-77
2022/05/11 12:39:03;;;;;;;;;7.00;6.33;;;;;28.08;41.93;100979.06;5048662;28;45524;-75
2022/05/11 12:41:29;;;;;;;;;6.33;5.67;;;;;28.10;42.12;100966.91;5047724;28;46333;-74
2022/05/11 12:43:58;;;;;;;;;9.00;5.00;;;;;28.13;41.59;100971.97;5046697;28;45522;-75
2022/05/11 12:46:24;;;;;;;;;5.00;5.00;;;;;28.15;41.84;100966.31;5046934;28;45588;-75
2022/05/11 12:48:54;;;;;;;;;5.67;5.33;;;;;28.19;42.17;100980.44;5045462;28;53533;-75
2022/05/11 12:51:52;;;;;;;;;6.00;6.00;;;;;28.22;42.41;100971.84;5053488;28;45911;-75
2022/05/11 12:54:27;;;;;;;;;5.33;5.00;;;;;28.23;42.29;100971.66;5049179;28;45386;-73
2022/05/11 12:57:11;;;;;;;;;6.67;6.67;;;;;28.22;42.09;100969.97;5065942;28;45498;-74
2022/05/11 12:59:38;;;;;;;;;4.33;4.33;;;;;28.22;42.57;100969.97;5049425;28;45375;-74
2022/05/11 13:02:27;;;;;;;;;8.00;5.00;;;;;28.27;42.36;100980.31;5051106;28;46535;-73
2022/05/11 13:04:59;;;;;;;;;6.00;6.00;;;;;28.33;42.28;100967.78;5041173;28;45604;-75
2022/05/11 13:07:29;;;;;;;;;7.00;6.00;;;;;28.36;43.08;100964.69;5050637;28;45541;-75
2022/05/11 13:10:00;;;;;;;;;5.33;4.67;;;;;28.38;42.87;100968.91;5052655;28;45427;-74
2022/05/11 13:12:28;;;;;;;;;6.67;6.67;;;;;28.41;42.66;100979.41;5053356;28;46198;-74
2022/05/11 13:14:58;;;;;;;;;7.00;6.00;;;;;28.45;41.72;100979.03;5049406;28;45415;-76
2022/05/11 13:17:47;;;;;;;;;6.67;5.33;;;;;28.46;39.98;100980.72;5044403;28;45588;-76
2022/05/11 13:20:25;;;;;;;;;6.67;6.00;;;;;28.44;39.83;100980.06;5041214;28;45530;-76
2022/05/11 13:22:53;;;;;;;;;8.33;6.00;;;;;28.41;39.03;100971.22;5049443;28;46362;-76
2022/05/11 13:25:39;;;;;;;;;7.33;5.67;;;;;28.37;39.68;100975.38;5038445;28;45594;-76
2022/05/11 13:28:13;;;;;;;;;6.00;4.67;;;;;28.35;39.08;100976.63;5044118;28;45443;-76
2022/05/11 13:30:44;;;;;;;;;8.67;8.00;;;;;28.30;39.02;100974.50;5043794;28;45391;-76
2022/05/11 13:33:29;;;;;;;;;7.00;7.00;;;;;28.27;39.62;100956.63;5049891;28;46208;-77
2022/05/11 13:36:14;;;;;;;;;8.00;6.00;;;;;28.21;39.33;100971.03;5042326;28;45396;-75
2022/05/11 13:38:50;;;;;;;;;7.67;5.67;;;;;28.18;39.27;100959.63;5047343;28;45534;-74
2022/05/11 13:41:20;;;;;;;;;8.00;6.00;;;;;28.14;39.28;100954.59;5046116;28;45482;-74
2022/05/11 13:43:49;;;;;;;;;6.67;4.67;;;;;28.11;39.43;100952.22;5040459;28;48079;-74
2022/05/11 13:46:33;;;;;;;;;6.00;6.00;;;;;28.11;39.73;100959.56;5051246;28;45550;-75
2022/05/11 13:49:36;;;;;;;;;8.33;6.00;;;;;28.10;40.16;100955.16;5045605;28;45516;-75
2022/05/11 13:52:12;;;;;;;;;7.00;7.00;;;;;28.10;40.64;100955.16;5049009;28;45559;-74
2022/05/11 13:54:54;;;;;;;;;5.33;5.33;;;;;28.10;40.64;100960.59;5049537;28;45642;-74
2022/05/11 13:57:30;;;;;;;;;5.67;5.67;;;;;28.10;40.30;100955.16;5051119;28;45711;-75
2022/05/11 14:00:09;;;;;;;;;8.33;5.33;;;;;28.09;40.52;100959.78;5035764;28;45816;-75
2022/05/11 14:02:36;;;;;;;;;4.33;4.33;;;;;28.10;40.68;100963.34;5046532;28;45896;-75
2022/05/11 14:05:01;;;;;;;;;7.00;6.00;;;;;28.12;41.18;100953.09;5047719;28;45516;-75
2022/05/11 14:07:27;;;;;;;;;5.00;4.33;;;;;28.17;40.73;100957.94;5030985;28;46019;-75
2022/05/11 14:09:55;;;;;;;;;8.00;6.33;;;;;28.20;40.77;100955.66;5045240;28;45540;-75
2022/05/11 14:12:21;;;;;;;;;7.00;6.00;;;;;28.22;41.24;100959.06;5050967;28;45539;-75
2022/05/11 14:14:47;;;;;;;;;7.67;7.00;;;;;28.25;41.55;100946.94;5049799;28;46476;-74
2022/05/11 14:17:18;;;;;;;;;4.00;4.00;;;;;28.26;41.48;100952.22;5046056;28;45548;-75
2022/05/11 14:19:43;;;;;;;;;5.00;4.33;;;;;28.26;41.23;100960.41;5033941;28;45316;-74
2022/05/11 14:22:09;;;;;;;;;4.67;4.67;;;;;28.26;41.17;100959.53;5032584;28;45629;-74
2022/05/11 14:24:35;;;;;;;;;5.00;4.33;;;;;28.25;41.59;100952.41;5048548;28;45927;-74
2022/05/11 14:27:00;;;;;;;;;8.00;6.00;;;;;28.22;41.98;100950.03;5043164;28;45481;-74
2022/05/11 14:29:26;;;;;;;;;5.00;4.00;;;;;28.21;41.67;100951.91;5044622;28;45754;-73
2022/05/11 14:31:52;;;;;;;;;8.33;5.67;;;;;28.20;42.17;100947.47;5048501;28;45654;-75
2022/05/11 14:34:23;;;;;;;;;9.00;5.00;;;;;28.26;42.15;100949.47;5047315;28;45844;-75
2022/05/11 14:36:49;;;;;;;;;6.67;6.33;;;;;28.31;41.96;100948.06;5034941;28;45569;-74
2022/05/11 14:39:16;;;;;;;;;4.00;4.00;;;;;28.35;42.84;100938.41;5036852;28;45428;-75
2022/05/11 14:41:42;;;;;;;;;4.67;4.67;;;;;28.39;41.93;100943.28;5035866;28;45399;-75
2022/05/11 14:44:09;;;;;;;;;3.67;3.67;;;;;28.44;42.01;100942.69;5040610;28;45900;-75
2022/05/11 14:46:35;;;;;;;;;7.33;3.00;;;;;28.47;42.35;100936.84;5039026;28;45402;-76
2022/05/11 14:49:00;;;;;;;;;4.33;3.33;;;;;28.48;42.24;100932.25;5040428;28;45526;-76
2022/05/11 14:51:27;;;;;;;;;5.67;4.33;;;;;28.52;42.53;100931.63;5034087;28;50651;-74
2022/05/11 14:53:53;;;;;;;;;3.00;3.00;;;;;28.51;42.66;100934.56;5046711;28;46123;-75
2022/05/11 14:56:20;;;;;;;;;6.33;5.00;;;;;28.54;42.93;100920.50;5044925;28;45330;-74
2022/05/11 15:04:23;;;;;;;;;4.00;4.00;;;;;28.51;42.83;100927.22;5036801;28;46076;-74
2022/05/11 15:06:49;;;;;;;;;4.67;3.33;;;;;28.49;42.74;100936.66;5035007;28;45765;-75
2022/05/11 15:09:14;;;;;;;;;5.00;5.00;;;;;28.48;42.95;100924.88;5038568;28;45498;-75
2022/05/11 15:14:26;;;;;;;;;3.00;3.00;;;;;28.56;43.09;100926.59;5039562;28;45846;-74
2022/05/11 15:17:02;;;;;;;;;2.67;2.67;;;;;28.57;42.88;100947.41;5046948;28;45720;-76
2022/05/11 15:19:28;;;;;;;;;5.00;4.00;;;;;28.58;43.25;100946.38;5046506;28;45566;-75
2022/05/11 15:21:54;;;;;;;;;4.67;4.67;;;;;28.59;43.43;100945.34;5049540;28;45531;-76
2022/05/11 15:24:19;;;;;;;;;4.67;4.67;;;;;28.61;43.12;100940.50;5051316;28;47199;-75
2022/05/11 15:26:45;;;;;;;;;3.33;3.00;;;;;28.62;43.48;100935.91;5043725;28;45424;-73
2022/05/11 15:29:11;;;;;;;;;7.33;4.00;;;;;28.62;43.19;100931.28;5042264;28;45451;-75
2022/05/11 15:31:36;;;;;;;;;6.00;3.00;;;;;28.64;43.80;100939.25;5044060;28;45525;-75
2022/05/11 15:34:03;;;;;;;;;6.67;5.00;;;;;28.64;41.54;100937.38;5043319;28;46018;-77
2022/05/11 15:36:28;;;;;;;;;6.00;5.00;;;;;28.65;39.68;100930.06;5042846;28;45468;-77
2022/05/11 15:38:54;;;;;;;;;5.67;5.67;;;;;28.63;39.74;100937.59;5048108;28;45310;-78
2022/05/11 15:41:20;;;;;;;;;6.00;6.00;;;;;28.61;40.04;100935.03;5042570;28;45547;-77
2022/05/11 15:43:46;;;;;;;;;5.00;4.00;;;;;28.59;39.33;100926.22;5044031;28;46180;-77
2022/05/11 15:46:11;;;;;;;;;5.00;5.00;;;;;28.58;39.92;100942.78;5043736;28;45476;-76
2022/05/11 15:48:36;;;;;;;;;5.00;5.00;;;;;28.52;39.75;100939.81;5038356;28;49190;-74
2022/05/11 15:51:02;;;;;;;;;6.33;6.33;;;;;28.47;39.49;100950.50;5039884;28;45545;-76
2022/05/11 15:53:30;;;;;;;;;4.67;3.67;;;;;28.43;39.97;100948.34;5035969;28;47485;-73
2022/05/11 15:55:56;;;;;;;;;6.00;4.00;;;;;28.34;40.29;100940.31;5035136;28;45641;-74
2022/05/11 15:58:23;;;;;;;;;5.00;5.00;;;;;28.32;39.76;100957.94;5038287;28;46575;-74
2022/05/11 16:00:48;;;;;;;;;3.67;3.67;;;;;28.27;40.51;100942.13;5039900;28;45775;-75
2022/05/11 16:03:16;;;;;;;;;3.67;3.67;;;;;28.27;40.94;100944.84;5050388;28;45814;-75
2022/05/11 16:05:41;;;;;;;;;5.00;5.00;;;;;28.25;40.79;100947.78;5043710;28;45388;-74
2022/05/11 16:08:07;;;;;;;;;4.00;3.00;;;;;28.27;40.57;100956.63;5042000;28;45866;-74
2022/05/11 16:10:33;;;;;;;;;3.00;3.00;;;;;28.29;41.43;100948.25;5046492;28;45428;-75
2022/05/11 16:12:59;;;;;;;;;4.33;3.00;;;;;28.28;41.35;100952.84;5041900;28;46518;-75
2022/05/11 16:15:24;;;;;;;;;3.33;3.33;;;;;28.27;41.67;100948.44;5045645;28;45788;-76
2022/05/11 16:20:34;;;;;;;;;5.33;4.00;;;;;28.30;41.62;100955.38;5041661;28;50155;-74
2022/05/11 16:22:59;;;;;;;;;3.00;3.00;;;;;28.31;41.95;100948.06;5044741;28;45879;-74
2022/05/11 16:25:25;;;;;;;;;4.00;4.00;;;;;28.34;41.72;100953.09;5052972;28;45681;-75
2022/05/11 16:27:51;;;;;;;;;4.33;4.33;;;;;28.34;41.43;100962.16;5042321;28;45899;-76
2022/05/11 16:30:16;;;;;;;;;4.33;4.00;;;;;28.35;41.97;100961.09;5044092;28;45577;-75
2022/05/11 16:32:42;;;;;;;;;3.00;3.00;;;;;28.36;41.90;100949.13;5036566;28;46809;-74
2022/05/11 16:35:08;;;;;;;;;4.00;3.33;;;;;28.40;40.34;100949.56;5046860;28;45553;-76
2022/05/11 16:37:33;;;;;;;;;4.00;3.00;;;;;28.44;40.13;100958.25;5044780;28;45360;-77
2022/05/11 16:40:03;;;;;;;;;5.00;3.00;;;;;28.44;39.62;100945.41;5044452;28;45744;-77
2022/05/11 16:42:31;;;;;;;;;2.67;2.67;;;;;28.45;38.94;100954.47;5051737;28;46301;-77
2022/05/11 16:44:57;;;;;;;;;3.00;3.00;;;;;28.40;39.54;100955.88;5054407;28;45761;-77
2022/05/11 16:47:22;;;;;;;;;4.33;4.00;;;;;28.38;39.16;100957.97;5046840;28;45412;-77
2022/05/11 16:49:51;;;;;;;;;4.00;4.00;;;;;28.37;39.72;100960.91;5045037;28;45386;-77
2022/05/11 16:52:19;;;;;;;;;3.33;3.33;;;;;28.34;39.68;100961.28;5038245;28;46051;-76
2022/05/11 16:54:45;;;;;;;;;4.00;3.33;;;;;28.30;39.84;100958.13;5049140;28;45725;-75
2022/05/11 16:57:11;;;;;;;;;3.33;3.33;;;;;28.24;39.55;100959.72;5039625;28;45482;-75
2022/05/11 16:59:37;;;;;;;;;4.33;3.00;;;;;28.21;39.70;100964.72;5047629;28;45552;-76
2022/05/11 17:02:03;;;;;;;;;2.67;2.67;;;;;28.19;40.01;100953.97;5048273;28;45498;-75
2022/05/11 17:04:29;;;;;;;;;3.67;3.67;;;;;28.24;40.15;100961.59;5052588;28;45441;-75
2022/05/11 17:06:54;;;;;;;;;6.33;4.00;;;;;28.23;39.73;100958.03;5041048;28;45488;-75
2022/05/11 17:09:20;;;;;;;;;2.67;2.67;;;;;28.21;39.90;100960.09;5047437;28;45470;-75
2022/05/11 17:11:48;;;;;;;;;3.67;2.33;;;;;28.18;39.91;100971.41;5045703;28;45515;-75
2022/05/11 17:14:17;;;;;;;;;2.67;2.67;;;;;28.17;39.90;100969.72;5047065;28;45526;-75
2022/05/11 17:16:43;;;;;;;;;3.33;2.00;;;;;28.15;40.79;100966.31;5047018;28;45677;-76
2022/05/11 17:19:08;;;;;;;;;3.00;3.00;;;;;28.14;40.27;100976.41;5049307;28;54384;-76
2022/05/11 17:21:36;;;;;;;;;2.33;2.33;;;;;28.20;40.33;100973.94;5044616;28;45368;-75
2022/05/11 17:24:02;;;;;;;;;3.00;3.00;;;;;28.25;40.50;100976.97;5053885;28;45467;-76
2022/05/11 17:26:27;;;;;;;;;5.00;4.00;;;;;28.31;41.02;100980.81;5045838;28;45556;-77
2022/05/11 17:28:54;;;;;;;;;3.00;3.00;;;;;28.32;40.59;100977.84;5047701;28;45536;-76
2022/05/11 17:31:19;;;;;;;;;3.00;3.00;;;;;28.36;40.55;100978.34;5043379;28;45728;-77
2022/05/11 17:33:44;;;;;;;;;3.33;3.33;;;;;28.38;40.82;100979.81;5043698;28;45544;-76
2022/05/11 17:36:10;;;;;;;;;3.67;3.00;;;;;28.41;40.51;100986.78;5041494;28;45761;-76
2022/05/11 17:38:37;;;;;;;;;4.33;3.33;;;;;28.41;41.14;100993.06;5052266;28;45483;-76
2022/05/11 17:41:04;;;;;;;;;4.67;4.00;;;;;28.40;40.74;100999.56;5041653;28;46273;-76
2022/05/11 17:43:30;;;;;;;;;2.00;2.00;;;;;28.39;40.79;101008.81;5038241;28;45501;-76
2022/05/11 17:45:55;;;;;;;;;2.00;2.00;;;;;28.37;41.02;101008.13;5035210;28;45363;-76
2022/05/11 17:48:22;;;;;;;;;2.67;2.67;;;;;28.35;40.84;101002.03;5041726;28;45867;-76
2022/05/11 17:50:48;;;;;;;;;3.00;1.67;;;;;28.37;41.10;101001.84;5036645;28;45388;-77
2022/05/11 17:53:15;;;;;;;;;3.00;2.00;;;;;28.36;41.10;100997.44;5040827;28;45473;-76
2022/05/11 17:55:45;;;;;;;;;2.00;2.00;;;;;28.36;40.13;101003.72;5039839;28;45570;-76
2022/05/11 17:58:12;;;;;;;;;4.00;4.00;;;;;28.36;40.83;101008.34;5051219;28;45959;-77
2022/05/11 18:00:38;;;;;;;;;5.00;3.67;;;;;28.32;40.32;101010.59;5038539;28;46774;-76
2022/05/11 18:03:05;;;;;;;;;2.33;2.00;;;;;28.28;40.40;101012.03;5041302;28;45502;-77
2022/05/11 18:05:33;;;;;;;;;1.67;1.67;;;;;28.26;40.96;101023.16;5035789;28;45570;-76
2022/05/11 18:07:58;;;;;;;;;2.00;1.00;;;;;28.24;40.23;101018.91;5043218;28;45417;-76
2022/05/11 18:10:27;;;;;;;;;4.00;2.00;;;;;28.19;40.53;101014.03;5043811;28;46191;-76
2022/05/11 18:12:53;;;;;;;;;2.00;2.00;;;;;28.18;40.90;101023.25;5036102;28;54906;-76
2022/05/11 18:15:21;;;;;;;;;2.33;1.67;;;;;28.14;41.01;101027.41;5039780;28;45547;-76
2022/05/11 18:17:46;;;;;;;;;1.67;1.67;;;;;28.13;40.43;101028.44;5039983;28;45459;-75
2022/05/11 18:20:16;;;;;;;;;2.00;2.00;;;;;28.11;40.91;101028.63;5038905;28;45473;-77
2022/05/11 18:22:43;;;;;;;;;3.00;1.67;;;;;28.11;40.90;101030.50;5038783;28;45510;-76
2022/05/11 18:25:10;;;;;;;;;1.67;1.67;;;;;28.10;40.34;101035.13;5044371;28;45680;-76
2022/05/11 18:27:35;;;;;;;;;5.00;2.00;;;;;28.08;40.47;101031.72;5047920;28;45530;-76
2022/05/11 18:30:01;;;;;;;;;1.33;1.33;;;;;28.05;41.09;101034.88;5040849;28;46365;-76
2022/05/11 18:32:26;;;;;;;;;2.00;2.00;;;;;28.07;40.50;101048.31;5038140;28;45485;-80
2022/05/11 18:34:51;;;;;;;;;4.67;4.67;;;;;28.09;40.20;101054.41;5040559;28;45472;-83
2022/05/11 18:37:17;;;;;;;;;5.67;3.67;;;;;28.08;40.49;101050.84;5033771;28;56694;-81
2022/05/11 18:39:42;;;;;;;;;4.67;4.67;;;;;28.09;40.09;101052.56;5036215;28;53237;-82
2022/05/11 18:42:08;;;;;;;;;3.00;3.00;;;;;28.09;39.74;101066.19;5038051;28;47210;-87
2022/05/11 18:44:34;;;;;;;;;5.33;4.33;;;;;28.06;39.69;101061.09;5045155;28;45486;-80
2022/05/11 18:47:00;;;;;;;;;5.00;5.00;;;;;28.05;40.06;101059.41;5049438;28;45460;-79
2022/05/11 18:49:25;;;;;;;;;3.00;3.00;;;;;28.03;39.95;101064.19;5043039;28;45309;-76
2022/05/11 18:51:51;;;;;;;;;4.00;2.00;;;;;28.01;40.35;101061.69;5037780;28;45464;-75
2022/05/11 18:54:16;;;;;;;;;2.67;2.33;;;;;27.99;40.23;101071.06;5046752;28;45519;-76
2022/05/11 18:56:42;;;;;;;;;3.00;3.00;;;;;27.98;40.25;101080.31;5044517;28;45523;-76
2022/05/11 18:59:07;;;;;;;;;2.67;2.67;;;;;27.94;41.04;101085.31;5040666;28;45661;-75
2022/05/11 19:01:34;;;;;;;;;3.00;1.33;;;;;27.94;41.13;101087.16;5046747;28;45957;-82
2022/05/11 19:03:59;;;;;;;;;2.00;2.00;;;;;27.97;40.85;101093.13;5033569;28;45409;-75
2022/05/11 19:06:25;;;;;;;;;2.67;1.00;;;;;27.97;40.67;101100.44;5035008;28;45383;-75
2022/05/11 19:08:51;;;;;;;;;2.00;1.33;;;;;27.97;40.72;101097.72;5041894;28;45467;-75
2022/05/11 19:11:17;;;;;;;;;3.00;3.00;;;;;27.99;41.27;101104.66;5039294;28;45456;-76
2022/05/11 19:13:42;;;;;;;;;5.33;3.67;;;;;28.05;40.88;101115.84;5043470;28;45416;-76